Time;durP1;ratioP1;P1;durP2;ratioP2;P2;SDS_P1;SDS_P2;PMS_P1;PMS_P2;Temp;Humidity;BMP_temperature;BMP_pressure;BME280_temperature;BME280_humidity;BME280_pressure;Samples;Min_cycle;Max_cycle;Signal;HPM_P1;HPM_P2
2022/12/20 00:00:17;;;;;;;59.23;35.33;;;0.90;99.90;;;;;;6283366;22;20292;-86
2022/12/20 00:02:43;;;;;;;55.60;34.13;;;0.90;99.90;;;;;;6277536;22;20467;-85
2022/12/20 00:05:09;;;;;;;53.67;34.83;;;0.90;99.90;;;;;;6303782;22;20172;-85
2022/12/20 00:07:35;;;;;;;52.33;34.77;;;0.90;99.90;;;;;;6302857;22;20190;-86
2022/12/20 00:10:01;;;;;;;55.50;35.00;;;0.90;99.90;;;;;;6303481;22;20601;-85
2022/12/20 00:12:27;;;;;;;52.23;34.93;;;0.90;99.90;;;;;;6303297;22;20253;-86
2022/12/20 00:14:53;;;;;;;50.47;33.77;;;0.90;99.90;;;;;;6303301;22;20190;-85
2022/12/20 00:17:20;;;;;;;59.97;36.20;;;0.90;99.90;;;;;;6303292;22;20150;-86
2022/12/20 00:19:46;;;;;;;53.30;33.57;;;0.90;99.90;;;;;;6303853;22;20204;-85
2022/12/20 00:22:12;;;;;;;53.10;34.03;;;0.90;99.90;;;;;;6303385;22;20186;-86
2022/12/20 00:24:38;;;;;;;55.37;34.13;;;0.90;99.90;;;;;;6303319;22;20183;-86
2022/12/20 00:27:04;;;;;;;55.70;34.30;;;0.90;99.90;;;;;;6303289;22;20183;-85
2022/12/20 00:29:30;;;;;;;54.83;33.73;;;0.90;99.90;;;;;;6303419;22;20185;-85
2022/12/20 00:31:56;;;;;;;54.73;33.90;;;0.90;99.90;;;;;;6303123;22;20179;-86
2022/12/20 00:34:22;;;;;;;51.97;33.17;;;0.90;99.90;;;;;;6277782;22;20240;-86
2022/12/20 00:36:48;;;;;;;71.97;41.60;;;0.90;99.90;;;;;;6303159;22;20159;-85
2022/12/20 00:39:14;;;;;;;66.27;39.30;;;0.90;99.90;;;;;;6303332;22;20166;-86
2022/12/20 00:41:40;;;;;;;69.17;40.07;;;0.80;99.90;;;;;;6303826;22;20186;-86
2022/12/20 00:44:06;;;;;;;69.27;40.57;;;0.80;99.90;;;;;;6303635;22;20170;-86
2022/12/20 00:46:33;;;;;;;72.23;42.87;;;0.80;99.90;;;;;;6277482;22;20156;-85
2022/12/20 00:48:59;;;;;;;70.73;42.90;;;0.80;99.90;;;;;;6304148;22;20285;-85
2022/12/20 00:51:28;;;;;;;73.30;42.87;;;0.80;99.90;;;;;;6303929;22;20202;-85
2022/12/20 00:53:54;;;;;;;75.57;44.87;;;0.80;99.90;;;;;;6278749;22;20148;-86
2022/12/20 00:56:20;;;;;;;68.90;43.77;;;0.80;99.90;;;;;;6304551;22;20182;-86
2022/12/20 00:58:46;;;;;;;75.70;45.03;;;0.80;99.90;;;;;;6304379;22;20191;-86
2022/12/20 01:01:29;;;;;;;77.57;44.57;;;0.80;99.90;;;;;;6306423;22;20213;-86
2022/12/20 01:03:55;;;;;;;70.00;39.20;;;0.80;99.90;;;;;;6305262;22;20155;-86
2022/12/20 01:06:23;;;;;;;71.33;42.23;;;0.80;99.90;;;;;;6304619;22;20175;-86
2022/12/20 01:08:50;;;;;;;70.00;39.97;;;0.80;99.90;;;;;;6304841;22;20268;-86
2022/12/20 01:11:22;;;;;;;67.70;40.10;;;0.70;99.90;;;;;;6305295;22;20284;-86
2022/12/20 01:13:50;;;;;;;71.63;38.87;;;0.70;99.90;;;;;;6278824;22;20165;-86
2022/12/20 01:16:19;;;;;;;62.83;38.20;;;0.70;99.90;;;;;;6279238;22;20648;-86
2022/12/20 01:18:46;;;;;;;65.90;41.30;;;0.80;99.90;;;;;;6304813;22;20169;-86
2022/12/20 01:21:14;;;;;;;67.37;41.57;;;0.80;99.90;;;;;;6305030;22;20174;-86
2022/12/20 01:23:40;;;;;;;67.97;40.17;;;0.80;99.90;;;;;;6279394;22;20203;-86
2022/12/20 01:26:10;;;;;;;61.43;37.43;;;0.80;99.90;;;;;;6304765;22;20165;-86
2022/12/20 01:28:39;;;;;;;56.83;35.73;;;0.80;99.90;;;;;;6279477;22;20437;-85
2022/12/20 01:31:07;;;;;;;64.33;38.13;;;0.80;99.90;;;;;;6278822;22;20305;-85
2022/12/20 01:33:33;;;;;;;63.27;39.17;;;0.90;99.90;;;;;;6253614;22;20185;-86
2022/12/20 01:36:03;;;;;;;60.67;37.60;;;0.90;99.90;;;;;;6304989;22;20150;-86
2022/12/20 01:38:30;;;;;;;66.40;38.87;;;0.90;99.90;;;;;;6304814;22;20151;-86
2022/12/20 01:40:59;;;;;;;60.70;36.33;;;0.90;99.90;;;;;;6304784;22;20233;-86
2022/12/20 01:43:44;;;;;;;54.17;34.97;;;0.80;99.90;;;;;;6279173;22;20216;-85
2022/12/20 01:46:10;;;;;;;59.67;35.77;;;0.90;99.90;;;;;;6304804;22;20154;-86
2022/12/20 01:48:39;;;;;;;54.03;33.93;;;0.80;99.90;;;;;;6278465;22;20188;-86
2022/12/20 01:51:05;;;;;;;54.77;34.40;;;0.80;99.90;;;;;;6278766;22;20178;-86
2022/12/20 01:53:32;;;;;;;50.90;32.20;;;0.90;99.90;;;;;;6304677;22;20170;-86
2022/12/20 01:56:04;;;;;;;57.23;35.40;;;0.80;99.90;;;;;;6305073;22;20240;-86
2022/12/20 01:58:32;;;;;;;62.43;38.13;;;0.90;99.90;;;;;;6304718;22;20170;-86
2022/12/20 02:00:58;;;;;;;66.10;39.33;;;0.90;99.90;;;;;;6304575;22;20234;-85
2022/12/20 02:03:24;;;;;;;68.63;40.43;;;0.90;99.90;;;;;;6304811;22;20164;-86
2022/12/20 02:05:51;;;;;;;65.00;37.93;;;0.90;99.90;;;;;;6304310;22;20681;-86
2022/12/20 02:08:19;;;;;;;57.47;36.97;;;0.80;99.90;;;;;;6304270;22;20201;-86
2022/12/20 02:10:55;;;;;;;66.33;39.60;;;0.80;99.90;;;;;;6303834;22;20174;-85
2022/12/20 02:13:54;;;;;;;64.97;40.00;;;0.80;99.90;;;;;;6278825;22;20181;-86
2022/12/20 02:16:27;;;;;;;59.17;36.40;;;0.80;99.90;;;;;;6269937;22;20159;-86
2022/12/20 02:19:24;;;;;;;58.23;36.33;;;0.80;99.90;;;;;;6303912;22;20152;-85
2022/12/20 02:22:14;;;;;;;59.60;36.90;;;0.90;99.90;;;;;;6278460;22;20193;-85
2022/12/20 02:25:06;;;;;;;63.13;35.17;;;0.90;99.90;;;;;;6278225;22;20163;-86
2022/12/20 02:27:46;;;;;;;56.70;34.60;;;0.90;99.90;;;;;;6278642;22;20158;-86
2022/12/20 02:30:17;;;;;;;59.60;35.80;;;0.90;99.90;;;;;;6278603;22;20652;-86
2022/12/20 02:32:54;;;;;;;62.87;35.43;;;0.90;99.90;;;;;;6304308;22;20152;-85
2022/12/20 02:35:26;;;;;;;58.40;35.27;;;0.90;99.90;;;;;;6278959;22;20170;-85
2022/12/20 02:37:54;;;;;;;57.53;34.97;;;0.80;99.90;;;;;;6303898;22;20218;-86
2022/12/20 02:40:30;;;;;;;59.47;36.00;;;0.80;99.90;;;;;;6303719;22;20177;-85
2022/12/20 02:42:59;;;;;;;57.73;34.70;;;0.80;99.90;;;;;;6303985;22;20174;-86
2022/12/20 02:45:35;;;;;;;59.30;35.50;;;0.80;99.90;;;;;;6304509;22;20161;-85
2022/12/20 02:48:09;;;;;;;53.40;33.23;;;0.80;99.90;;;;;;6278341;22;20181;-86
2022/12/20 02:50:45;;;;;;;51.37;31.90;;;0.80;99.90;;;;;;6304471;22;20155;-85
2022/12/20 02:53:12;;;;;;;56.33;32.13;;;0.90;99.90;;;;;;6278600;22;20234;-85
2022/12/20 02:55:49;;;;;;;47.37;29.67;;;1.00;99.90;;;;;;6278238;22;20157;-85
2022/12/20 02:58:28;;;;;;;53.33;30.77;;;1.00;99.90;;;;;;6303790;22;20208;-85
2022/12/20 03:00:58;;;;;;;51.33;30.80;;;1.00;99.90;;;;;;6278194;22;20182;-86
2022/12/20 03:03:25;;;;;;;48.70;30.17;;;1.00;99.90;;;;;;6304093;22;20164;-86
2022/12/20 03:05:54;;;;;;;50.87;29.83;;;1.00;99.90;;;;;;6304231;22;20153;-86
2022/12/20 03:08:22;;;;;;;45.90;29.67;;;1.00;99.90;;;;;;6303566;22;20184;-85
2022/12/20 03:10:49;;;;;;;50.80;30.23;;;1.00;99.90;;;;;;6304252;22;20210;-86
2022/12/20 03:13:16;;;;;;;46.53;30.23;;;1.00;99.90;;;;;;6277930;22;20168;-86
2022/12/20 03:15:50;;;;;;;52.30;31.73;;;1.00;99.90;;;;;;6278163;22;20154;-85
2022/12/20 03:18:16;;;;;;;54.47;32.63;;;0.90;99.90;;;;;;6278221;22;20173;-85
2022/12/20 03:20:43;;;;;;;55.63;32.80;;;0.90;99.90;;;;;;6303621;22;20598;-86
2022/12/20 03:23:09;;;;;;;55.73;32.43;;;0.90;99.90;;;;;;6277212;22;20212;-86
2022/12/20 03:25:35;;;;;;;48.83;31.10;;;0.90;99.90;;;;;;6303830;22;20174;-86
2022/12/20 03:28:04;;;;;;;57.90;32.73;;;0.90;99.90;;;;;;6303544;22;20191;-85
2022/12/20 03:30:30;;;;;;;46.73;29.87;;;0.90;99.90;;;;;;6304080;22;20155;-86
2022/12/20 03:32:56;;;;;;;45.10;30.17;;;0.90;99.90;;;;;;6303828;22;20166;-86
2022/12/20 03:35:22;;;;;;;46.57;29.00;;;0.90;99.90;;;;;;6277875;22;20159;-86
2022/12/20 03:37:48;;;;;;;49.20;28.97;;;0.80;99.90;;;;;;6277988;22;20168;-85
2022/12/20 03:40:15;;;;;;;45.87;29.70;;;0.80;99.90;;;;;;6303567;22;20163;-85
2022/12/20 03:42:41;;;;;;;46.43;29.10;;;0.80;99.90;;;;;;6303583;22;20187;-85
2022/12/20 03:45:08;;;;;;;49.60;30.77;;;0.70;99.90;;;;;;6303436;22;20625;-85
2022/12/20 03:47:34;;;;;;;49.37;30.03;;;0.70;99.90;;;;;;6277509;22;20159;-86
2022/12/20 03:50:00;;;;;;;51.03;30.13;;;0.70;99.90;;;;;;6303574;22;20293;-85
2022/12/20 03:52:30;;;;;;;47.33;28.10;;;0.70;99.90;;;;;;6303215;22;20268;-86
2022/12/20 03:54:56;;;;;;;43.13;28.03;;;0.80;99.90;;;;;;6303459;22;20166;-85
2022/12/20 03:57:29;;;;;;;44.77;28.77;;;0.70;99.90;;;;;;6303306;22;20169;-85
2022/12/20 03:59:56;;;;;;;42.03;27.07;;;0.70;99.90;;;;;;6303671;22;20208;-85
2022/12/20 04:02:22;;;;;;;42.13;25.83;;;0.80;99.90;;;;;;6303184;22;20177;-85
2022/12/20 04:04:48;;;;;;;38.83;24.43;;;0.80;99.90;;;;;;6303592;22;20187;-85
2022/12/20 04:07:14;;;;;;;40.30;23.90;;;0.80;99.90;;;;;;6303288;22;20188;-86
2022/12/20 04:09:44;;;;;;;36.50;22.57;;;0.90;99.90;;;;;;6278470;22;20184;-85
2022/12/20 04:12:12;;;;;;;36.03;22.37;;;0.90;99.90;;;;;;6303723;22;20171;-85
2022/12/20 04:14:39;;;;;;;37.60;23.23;;;0.90;99.90;;;;;;6304632;22;20158;-86
2022/12/20 04:17:05;;;;;;;34.73;22.13;;;0.90;99.90;;;;;;6304628;22;20188;-85
2022/12/20 04:19:32;;;;;;;34.00;20.33;;;1.00;99.90;;;;;;6304746;22;20241;-85
2022/12/20 04:21:59;;;;;;;32.37;21.50;;;1.00;99.90;;;;;;6304840;22;20203;-85
2022/12/20 04:24:30;;;;;;;34.47;21.63;;;1.00;99.90;;;;;;6305576;22;20154;-85
2022/12/20 04:27:09;;;;;;;38.70;24.97;;;1.00;99.90;;;;;;6304060;22;20162;-85
2022/12/20 04:29:36;;;;;;;37.60;23.57;;;1.00;99.90;;;;;;6252440;22;20192;-86
2022/12/20 04:32:05;;;;;;;34.43;23.17;;;1.00;99.90;;;;;;6278061;22;20235;-85
2022/12/20 04:34:31;;;;;;;34.77;22.80;;;1.00;99.90;;;;;;6303110;22;20164;-86
2022/12/20 04:36:57;;;;;;;38.33;24.17;;;1.00;99.90;;;;;;6303159;22;20159;-86
2022/12/20 04:39:35;;;;;;;37.97;22.73;;;1.00;99.90;;;;;;6303322;22;20144;-85
2022/12/20 04:42:25;;;;;;;34.47;22.47;;;1.00;99.90;;;;;;6287288;22;20257;-85
2022/12/20 04:44:52;;;;;;;35.17;22.20;;;1.00;99.90;;;;;;6277421;22;20196;-85
2022/12/20 04:47:23;;;;;;;35.17;22.47;;;1.00;99.90;;;;;;6303017;22;20142;-85
2022/12/20 04:49:50;;;;;;;36.30;23.60;;;1.00;99.90;;;;;;6303035;22;20181;-85
2022/12/20 04:55:01;;;;;;;33.57;21.80;;;1.00;99.90;;;;;;6276918;22;20147;-86
2022/12/20 04:57:30;;;;;;;34.90;22.40;;;1.00;99.90;;;;;;6302560;22;20242;-85
2022/12/20 04:59:57;;;;;;;36.47;24.53;;;1.10;99.90;;;;;;6303149;22;20239;-85
2022/12/20 05:02:23;;;;;;;35.87;23.13;;;1.00;99.90;;;;;;6301523;22;20174;-85
2022/12/20 05:04:53;;;;;;;35.23;22.97;;;1.10;99.90;;;;;;6303187;22;20140;-85
2022/12/20 05:07:20;;;;;;;38.93;24.37;;;1.10;99.90;;;;;;6302872;22;20155;-85
2022/12/20 05:09:51;;;;;;;38.93;24.63;;;1.10;99.90;;;;;;6302922;22;20177;-85
2022/12/20 05:12:19;;;;;;;37.63;25.77;;;1.10;99.90;;;;;;6302877;22;20184;-85
2022/12/20 05:14:45;;;;;;;41.60;26.73;;;1.10;99.90;;;;;;6302874;22;20170;-85
2022/12/20 05:17:17;;;;;;;43.37;26.63;;;1.10;99.90;;;;;;6302936;22;20153;-86
2022/12/20 05:19:43;;;;;;;45.73;27.27;;;1.10;99.90;;;;;;6252145;22;20170;-83
2022/12/20 05:27:58;;;;;;;39.57;25.07;;;1.20;99.90;;;;;;6279620;22;20176;-86
2022/12/20 05:30:36;;;;;;;38.27;22.60;;;1.10;99.90;;;;;;6305157;22;20191;-86
2022/12/20 05:33:02;;;;;;;39.07;23.63;;;1.20;99.90;;;;;;6305818;22;20142;-86
2022/12/20 05:35:30;;;;;;;35.27;22.03;;;1.20;99.90;;;;;;6278586;22;20191;-86
2022/12/20 05:38:02;;;;;;;40.60;24.53;;;1.40;99.90;;;;;;6305716;22;20481;-86
2022/12/20 05:40:29;;;;;;;35.70;23.30;;;1.40;99.90;;;;;;6305079;22;20219;-86
2022/12/20 05:42:55;;;;;;;32.40;21.17;;;1.40;99.90;;;;;;6304896;22;20163;-86
2022/12/20 05:45:29;;;;;;;37.23;23.00;;;1.50;99.90;;;;;;6303804;22;20533;-86
2022/12/20 05:48:02;;;;;;;32.87;19.73;;;1.50;99.90;;;;;;6307008;22;20190;-86
2022/12/20 05:50:30;;;;;;;28.63;18.63;;;1.50;99.90;;;;;;6281251;22;20159;-87
2022/12/20 05:53:22;;;;;;;28.33;17.67;;;1.40;99.90;;;;;;6302534;22;20167;-86
2022/12/20 05:55:53;;;;;;;24.90;15.23;;;1.50;99.90;;;;;;6307217;22;20159;-86
2022/12/20 05:58:23;;;;;;;27.30;17.13;;;1.50;99.90;;;;;;6281000;22;20658;-86
2022/12/20 06:01:01;;;;;;;29.27;18.57;;;1.60;99.90;;;;;;6307123;22;20179;-86
2022/12/20 06:03:27;;;;;;;21.40;15.23;;;1.60;99.90;;;;;;6306272;22;20155;-86
2022/12/20 06:05:55;;;;;;;26.67;17.17;;;1.60;99.90;;;;;;6306891;22;20155;-86
2022/12/20 07:19:57;;;;;;;39.40;24.60;;;2.00;99.90;;;;;;6305985;22;20174;-87
2022/12/20 07:22:24;;;;;;;46.07;28.50;;;1.90;99.90;;;;;;6281289;22;20202;-87
2022/12/20 07:24:57;;;;;;;44.70;27.70;;;1.80;99.90;;;;;;6303584;22;20152;-87
2022/12/20 07:27:27;;;;;;;39.57;26.90;;;1.70;99.90;;;;;;6277727;22;20181;-87
2022/12/20 07:29:53;;;;;;;46.10;29.70;;;1.70;99.90;;;;;;6305466;22;20244;-87
2022/12/20 07:32:18;;;;;;;48.10;31.67;;;1.70;99.90;;;;;;6307091;22;20265;-87
2022/12/20 07:34:45;;;;;;;50.33;31.63;;;1.70;99.90;;;;;;6306207;22;20155;-87
2022/12/20 07:37:15;;;;;;;47.57;30.50;;;1.70;99.90;;;;;;6303733;22;20159;-87
2022/12/20 07:39:41;;;;;;;49.20;30.03;;;1.70;99.90;;;;;;6305297;22;20166;-87
2022/12/20 07:42:08;;;;;;;48.70;28.33;;;1.60;99.90;;;;;;6306249;22;20176;-87
2022/12/20 07:44:41;;;;;;;49.53;29.90;;;1.60;99.90;;;;;;6280409;22;20152;-87
2022/12/20 07:47:08;;;;;;;48.20;28.47;;;1.60;99.90;;;;;;6306092;22;20159;-87
2022/12/20 07:49:36;;;;;;;52.17;30.40;;;1.60;99.90;;;;;;6306595;22;20180;-87
2022/12/20 07:52:04;;;;;;;49.10;31.53;;;1.60;99.90;;;;;;6306608;22;20272;-87
2022/12/20 07:54:34;;;;;;;45.47;28.60;;;1.60;99.90;;;;;;6306389;22;20151;-87
2022/12/20 07:57:15;;;;;;;47.23;29.23;;;1.60;99.90;;;;;;6306666;22;20141;-87
2022/12/20 07:59:55;;;;;;;44.00;28.30;;;1.60;99.90;;;;;;6280670;22;20166;-87
2022/12/20 08:02:26;;;;;;;43.80;27.80;;;1.60;99.90;;;;;;6280703;22;20190;-86
2022/12/20 08:04:54;;;;;;;43.07;28.03;;;1.70;99.90;;;;;;6280415;22;20151;-86
2022/12/20 08:07:20;;;;;;;41.00;26.80;;;1.70;99.90;;;;;;6280079;22;20164;-86
2022/12/20 08:09:46;;;;;;;40.57;26.53;;;1.70;99.90;;;;;;6304313;22;20190;-87
2022/12/20 08:12:16;;;;;;;41.50;25.53;;;1.70;99.90;;;;;;6278343;22;20182;-88
2022/12/20 08:14:43;;;;;;;41.73;28.53;;;1.70;99.90;;;;;;6303938;22;20200;-87
2022/12/20 08:17:10;;;;;;;42.30;27.00;;;1.80;99.90;;;;;;6303936;22;20156;-86
2022/12/20 08:19:37;;;;;;;34.70;24.00;;;1.80;99.90;;;;;;6302867;22;20193;-86
2022/12/20 08:22:05;;;;;;;35.50;23.37;;;1.90;99.90;;;;;;6277337;22;20180;-86
2022/12/20 08:24:32;;;;;;;32.07;22.13;;;1.90;99.90;;;;;;6251198;22;20172;-86
2022/12/20 08:27:01;;;;;;;30.20;21.97;;;1.90;99.90;;;;;;6281112;22;20202;-35
2022/12/20 08:29:27;;;;;;;33.47;21.90;;;2.00;99.90;;;;;;6287126;22;20225;-35
2022/12/20 08:31:53;;;;;;;32.17;22.13;;;2.00;99.90;;;;;;6254066;22;20187;-34
2022/12/20 08:34:19;;;;;;;32.20;22.87;;;2.00;99.90;;;;;;6278963;22;20166;-34
2022/12/20 08:36:45;;;;;;;31.77;21.47;;;2.00;99.90;;;;;;6253829;22;20164;-34
2022/12/20 08:39:10;;;;;;;35.03;23.57;;;2.10;99.90;;;;;;6278947;22;20163;-35
2022/12/20 08:41:36;;;;;;;35.70;22.23;;;2.10;99.90;;;;;;6253749;22;20243;-35
2022/12/20 08:44:05;;;;;;;34.10;23.43;;;2.10;99.90;;;;;;6306533;22;20156;-34
2022/12/20 08:46:31;;;;;;;38.20;26.43;;;2.20;99.90;;;;;;6279240;22;20218;-34
2022/12/20 08:48:57;;;;;;;45.97;30.03;;;2.20;99.90;;;;;;6253630;22;20180;-34
2022/12/20 08:51:23;;;;;;;42.40;29.00;;;2.20;99.90;;;;;;6253667;22;20180;-35
2022/12/20 08:53:49;;;;;;;40.13;27.30;;;2.20;99.90;;;;;;6279120;22;20217;-35
2022/12/20 08:56:19;;;;;;;36.77;26.47;;;2.30;99.90;;;;;;6254065;22;20159;-35
2022/12/20 08:58:46;;;;;;;39.10;26.63;;;2.30;99.90;;;;;;6253610;22;20163;-35
2022/12/20 09:01:16;;;;;;;36.97;26.07;;;2.30;99.90;;;;;;6253580;22;20176;-35
2022/12/20 09:03:44;;;;;;;42.17;27.87;;;2.30;99.90;;;;;;6253929;22;20152;-35
2022/12/20 09:06:14;;;;;;;39.53;27.33;;;2.30;99.90;;;;;;6279297;22;20159;-34
2022/12/20 09:08:41;;;;;;;40.87;28.17;;;2.40;99.90;;;;;;6253914;22;20203;-35
2022/12/20 09:11:11;;;;;;;41.03;26.00;;;2.40;99.90;;;;;;6279266;22;20247;-34
2022/12/20 09:13:37;;;;;;;34.03;23.17;;;2.40;99.90;;;;;;6278981;22;20479;-35
2022/12/20 09:16:08;;;;;;;36.87;25.70;;;2.50;99.90;;;;;;6279574;22;20231;-35
2022/12/20 09:18:40;;;;;;;40.37;27.93;;;2.50;99.90;;;;;;6305782;22;20159;-35
2022/12/20 09:21:07;;;;;;;42.00;26.40;;;2.60;99.90;;;;;;6254366;22;20187;-35
2022/12/20 09:23:34;;;;;;;33.67;24.33;;;2.70;99.90;;;;;;6280655;22;20247;-34
2022/12/20 09:26:03;;;;;;;41.27;26.33;;;2.70;99.90;;;;;;6281388;22;20182;-35
2022/12/20 09:28:30;;;;;;;38.13;25.53;;;2.70;99.90;;;;;;6286903;22;20189;-34
2022/12/20 09:31:00;;;;;;;27.93;20.10;;;2.70;99.90;;;;;;6286178;22;20179;-34
2022/12/20 09:33:28;;;;;;;26.80;19.23;;;2.80;99.90;;;;;;6286370;22;20665;-35
2022/12/20 09:35:53;;;;;;;25.67;18.27;;;2.80;99.90;;;;;;6288162;22;20177;-35
2022/12/20 09:38:20;;;;;;;24.93;18.50;;;2.80;99.90;;;;;;6287245;22;20193;-34
2022/12/20 09:40:52;;;;;;;27.10;18.47;;;2.90;99.90;;;;;;6286726;22;20171;-35
2022/12/20 09:43:19;;;;;;;30.60;18.93;;;3.00;99.90;;;;;;6288855;22;20209;-36
2022/12/20 09:45:47;;;;;;;24.77;17.63;;;3.00;99.90;;;;;;6313348;22;20148;-34
2022/12/20 09:48:20;;;;;;;22.03;15.63;;;3.00;99.90;;;;;;6313211;22;20347;-44
2022/12/20 09:51:14;;;;;;;22.43;16.00;;;3.10;99.90;;;;;;6311770;22;20258;-44
2022/12/20 09:53:59;;;;;;;24.33;17.07;;;3.20;99.90;;;;;;6285533;22;20147;-44
2022/12/20 09:56:54;;;;;;;26.53;19.03;;;3.30;99.90;;;;;;6311500;22;20156;-44
2022/12/20 09:59:20;;;;;;;25.47;18.50;;;3.30;99.90;;;;;;6339055;22;20210;-43
2022/12/20 10:01:49;;;;;;;29.13;21.23;;;3.40;99.90;;;;;;6285515;22;20175;-43
2022/12/20 10:04:20;;;;;;;30.33;21.07;;;3.40;99.90;;;;;;6285530;22;20159;-44
2022/12/20 10:07:24;;;;;;;26.53;19.20;;;3.50;99.90;;;;;;6311239;22;20519;-44
2022/12/20 10:10:20;;;;;;;25.30;18.03;;;3.60;99.90;;;;;;6285726;22;20186;-45
2022/12/20 10:12:53;;;;;;;22.73;17.17;;;3.60;99.90;;;;;;6285787;22;20152;-45
2022/12/20 10:15:40;;;;;;;29.03;20.47;;;3.50;99.90;;;;;;6285385;22;20147;-44
2022/12/20 10:18:32;;;;;;;30.00;21.17;;;3.60;99.90;;;;;;6311203;22;20175;-44
2022/12/20 10:21:24;;;;;;;29.00;20.70;;;3.60;99.90;;;;;;6311559;22;20174;-44
2022/12/20 10:24:00;;;;;;;28.03;20.23;;;3.50;99.90;;;;;;6285819;22;20154;-44
2022/12/20 10:26:26;;;;;;;28.60;20.90;;;3.50;99.90;;;;;;6285778;22;20143;-44
2022/12/20 10:28:52;;;;;;;31.17;21.43;;;3.40;99.90;;;;;;6310699;22;20277;-44
2022/12/20 10:31:18;;;;;;;28.53;21.10;;;3.40;99.90;;;;;;6285383;22;20203;-44
2022/12/20 10:33:46;;;;;;;27.43;20.00;;;3.40;99.90;;;;;;6311200;22;20151;-44
2022/12/20 10:36:20;;;;;;;30.83;21.17;;;3.30;99.90;;;;;;6285214;22;20159;-46
2022/12/20 10:38:49;;;;;;;28.80;21.53;;;3.30;99.90;;;;;;6311151;22;20159;-44
2022/12/20 10:41:21;;;;;;;30.57;22.57;;;3.20;99.90;;;;;;6285184;22;20206;-44
2022/12/20 10:43:51;;;;;;;31.83;22.87;;;3.20;99.90;;;;;;6285490;22;20155;-44
2022/12/20 10:46:18;;;;;;;30.50;21.90;;;3.10;99.90;;;;;;6311312;22;20148;-44
2022/12/20 10:48:46;;;;;;;32.60;23.23;;;3.10;99.90;;;;;;6338481;22;20171;-44
2022/12/20 10:51:21;;;;;;;30.57;21.67;;;3.10;99.90;;;;;;6311144;22;20617;-44
2022/12/20 10:53:54;;;;;;;30.93;21.53;;;3.10;99.90;;;;;;6311243;22;20196;-44
2022/12/20 10:56:19;;;;;;;29.50;21.93;;;3.10;99.90;;;;;;6285491;22;20158;-44
2022/12/20 10:58:59;;;;;;;31.93;21.10;;;3.00;99.90;;;;;;6310844;22;20155;-46
2022/12/20 11:01:35;;;;;;;32.07;21.60;;;3.00;99.90;;;;;;6285426;22;20186;-45
2022/12/20 11:04:02;;;;;;;30.93;21.23;;;3.00;99.90;;;;;;6285689;22;20206;-45
2022/12/20 11:06:37;;;;;;;36.33;25.03;;;3.00;99.90;;;;;;6311301;22;20170;-45
2022/12/20 11:09:30;;;;;;;32.50;24.43;;;3.00;99.90;;;;;;6311406;22;20210;-45
2022/12/20 11:12:00;;;;;;;35.07;24.07;;;3.00;99.90;;;;;;6311814;22;20171;-46
2022/12/20 11:14:27;;;;;;;38.53;27.47;;;3.00;99.90;;;;;;6285626;22;20159;-46
2022/12/20 11:16:56;;;;;;;44.97;29.30;;;3.10;99.90;;;;;;6285362;22;20238;-46
2022/12/20 11:19:27;;;;;;;44.80;30.40;;;3.10;99.90;;;;;;6285666;22;20160;-45
2022/12/20 11:22:16;;;;;;;39.83;29.63;;;3.10;99.90;;;;;;6311388;22;20186;-45
2022/12/20 11:24:47;;;;;;;43.90;29.60;;;3.10;99.90;;;;;;6311595;22;20147;-45
2022/12/20 11:27:29;;;;;;;38.80;27.53;;;3.20;99.90;;;;;;6309961;22;20160;-45
2022/12/20 11:30:00;;;;;;;35.37;25.50;;;3.20;99.90;;;;;;6310851;22;20194;-46
2022/12/20 11:33:17;;;;;;;36.00;25.80;;;3.20;99.90;;;;;;6311527;22;20198;-45
2022/12/20 11:35:57;;;;;;;36.17;25.97;;;3.30;99.90;;;;;;6133773;23;20204;-46
2022/12/20 11:38:29;;;;;;;38.63;26.23;;;3.40;99.90;;;;;;6157846;23;20159;-46
2022/12/20 11:41:10;;;;;;;39.83;30.30;;;3.40;99.90;;;;;;6238840;22;20210;-46
2022/12/20 11:44:10;;;;;;;37.40;27.73;;;3.40;99.90;;;;;;6284435;22;20151;-46
2022/12/20 11:47:02;;;;;;;39.90;28.00;;;3.40;99.90;;;;;;6303045;22;20159;-46
2022/12/20 11:49:34;;;;;;;38.40;27.07;;;3.40;99.90;;;;;;6284389;22;20175;-46
2022/12/20 11:52:28;;;;;;;41.57;28.97;;;3.40;99.90;;;;;;6310138;22;20182;-46
2022/12/20 11:55:21;;;;;;;39.73;28.37;;;3.40;99.90;;;;;;6284242;22;20151;-46
2022/12/20 11:58:09;;;;;;;44.50;33.80;;;3.40;99.90;;;;;;6284286;22;20159;-46
2022/12/20 12:00:37;;;;;;;44.47;32.50;;;3.40;99.90;;;;;;6338552;22;20155;-46
2022/12/20 12:03:33;;;;;;;51.80;34.47;;;3.30;99.90;;;;;;6310196;22;20242;-46
2022/12/20 12:06:15;;;;;;;53.70;38.97;;;3.30;99.90;;;;;;6338462;22;20238;-46
2022/12/20 12:09:13;;;;;;;55.07;38.37;;;3.30;99.90;;;;;;6284241;22;20186;-46
2022/12/20 12:11:44;;;;;;;50.00;37.30;;;3.30;99.90;;;;;;6317357;22;20178;-46
2022/12/20 12:14:36;;;;;;;47.80;34.10;;;3.30;99.90;;;;;;6284452;22;20170;-46
2022/12/20 12:17:19;;;;;;;48.60;34.63;;;3.40;99.90;;;;;;6311771;22;20175;-46
2022/12/20 12:19:49;;;;;;;43.57;31.83;;;3.40;99.90;;;;;;6284558;22;20173;-46
2022/12/20 12:22:23;;;;;;;44.67;30.10;;;3.50;99.90;;;;;;6284010;22;20240;-46
2022/12/20 12:24:55;;;;;;;40.93;29.23;;;3.50;99.90;;;;;;6310420;22;20140;-46
2022/12/20 12:27:26;;;;;;;43.23;29.87;;;3.60;99.90;;;;;;6310981;22;20155;-47
2022/12/20 12:29:55;;;;;;;35.63;25.97;;;3.60;99.90;;;;;;6311038;22;20214;-48
2022/12/20 12:32:40;;;;;;;35.77;25.93;;;3.60;99.90;;;;;;6285588;22;20263;-48
2022/12/20 12:35:18;;;;;;;33.93;24.97;;;3.60;99.90;;;;;;6285010;22;20197;-48
2022/12/20 12:37:45;;;;;;;35.07;25.80;;;3.60;99.90;;;;;;6310561;22;20164;-46
2022/12/20 12:40:39;;;;;;;31.93;24.80;;;3.60;99.90;;;;;;6310337;22;20189;-44
2022/12/20 12:43:40;;;;;;;32.53;24.13;;;3.60;99.90;;;;;;6338109;22;20143;-45
2022/12/20 12:46:15;;;;;;;43.23;30.97;;;3.60;99.90;;;;;;6310019;22;20200;-44
2022/12/20 12:48:59;;;;;;;52.07;36.00;;;3.60;99.90;;;;;;6284394;22;20617;-44
2022/12/20 12:51:38;;;;;;;52.47;34.97;;;3.70;99.90;;;;;;6310588;22;20235;-44
2022/12/20 12:54:37;;;;;;;46.33;32.37;;;3.70;99.90;;;;;;6338075;22;20201;-43
2022/12/20 12:57:13;;;;;;;46.30;31.10;;;3.70;99.90;;;;;;6309744;22;20158;-43
2022/12/20 12:59:50;;;;;;;42.57;29.97;;;3.70;99.90;;;;;;6284390;22;20155;-44
2022/12/20 13:02:16;;;;;;;40.07;29.47;;;3.70;99.90;;;;;;6283905;22;20186;-44
2022/12/20 13:05:20;;;;;;;47.23;30.90;;;3.70;99.90;;;;;;6310052;22;20151;-43
2022/12/20 13:07:46;;;;;;;52.70;33.00;;;3.70;99.90;;;;;;6337276;22;20223;-45
2022/12/20 13:10:19;;;;;;;50.17;33.10;;;3.70;99.90;;;;;;6310219;22;20170;-45
2022/12/20 13:12:51;;;;;;;54.20;36.77;;;3.70;99.90;;;;;;6310045;22;20200;-45
2022/12/20 13:18:00;;;;;;;54.27;36.97;;;3.70;99.90;;;;;;6303050;22;20258;-42
2022/12/20 13:20:31;;;;;;;52.50;35.00;;;3.70;99.90;;;;;;6276215;22;20156;-39
2022/12/20 13:23:10;;;;;;;55.73;36.63;;;3.70;99.90;;;;;;6276585;22;20160;-40
2022/12/20 13:25:39;;;;;;;52.93;33.43;;;3.70;99.90;;;;;;6276087;22;20175;-39
2022/12/20 13:28:23;;;;;;;50.53;34.80;;;3.60;99.90;;;;;;6251063;22;20192;-40
2022/12/20 13:30:52;;;;;;;47.17;31.67;;;3.60;99.90;;;;;;6251603;22;20216;-43
2022/12/20 13:33:22;;;;;;;52.83;34.30;;;3.60;99.90;;;;;;6277158;22;20217;-43
2022/12/20 13:35:57;;;;;;;55.77;37.03;;;3.50;99.90;;;;;;6304705;22;20164;-43
2022/12/20 13:38:42;;;;;;;55.77;37.70;;;3.50;99.90;;;;;;6276255;22;20155;-42
2022/12/20 13:41:29;;;;;;;54.73;36.60;;;3.50;99.90;;;;;;6252017;22;20260;-40
2022/12/20 13:44:01;;;;;;;53.10;36.23;;;3.50;99.90;;;;;;6251394;22;20156;-42
2022/12/20 13:46:54;;;;;;;50.00;33.93;;;3.50;99.90;;;;;;6276832;22;20209;-39
2022/12/20 13:49:39;;;;;;;52.23;33.60;;;3.60;99.90;;;;;;6221552;22;20195;-41
2022/12/20 13:52:11;;;;;;;52.93;33.30;;;3.60;99.90;;;;;;6251396;22;20171;-40
2022/12/20 13:54:49;;;;;;;48.17;32.47;;;3.80;99.90;;;;;;6276890;22;20171;-39
2022/12/20 13:57:43;;;;;;;54.07;36.27;;;3.90;99.90;;;;;;6277971;22;20219;-45
2022/12/20 14:00:29;;;;;;;50.07;34.30;;;4.00;99.90;;;;;;6250718;22;20163;-39
2022/12/20 14:02:56;;;;;;;45.43;31.40;;;4.10;99.90;;;;;;6276381;22;20146;-40
2022/12/20 14:05:27;;;;;;;44.57;30.73;;;4.10;99.90;;;;;;6276393;22;20156;-41
2022/12/20 14:08:00;;;;;;;107.20;64.57;;;4.20;99.90;;;;;;6252027;22;20161;-41
2022/12/20 14:10:28;;;;;;;101.50;61.73;;;4.30;99.90;;;;;;6252198;22;20166;-39
2022/12/20 14:12:55;;;;;;;85.57;53.03;;;4.50;99.90;;;;;;6252731;22;20164;-40
2022/12/20 14:15:26;;;;;;;80.57;53.13;;;4.70;99.90;;;;;;6277780;22;20172;-39
2022/12/20 14:17:52;;;;;;;68.93;45.27;;;4.90;99.90;;;;;;6283309;22;20168;-40
2022/12/20 14:20:26;;;;;;;48.80;35.67;;;4.90;99.90;;;;;;6285263;22;20174;-40
2022/12/20 14:23:20;;;;;;;41.87;30.80;;;5.00;99.90;;;;;;6307898;22;20161;-39